createdAt,value
2024-04-23T00:00:10.971Z,5.19
2024-04-23T00:02:41.412Z,5.24
2024-04-23T00:05:12.087Z,5.28
2024-04-23T00:07:42.739Z,5.32
2024-04-23T00:10:10.717Z,5.33
2024-04-23T00:12:41.206Z,5.34
2024-04-23T00:15:09.057Z,5.29
2024-04-23T00:17:39.595Z,5.22
2024-04-23T00:20:11.301Z,5.17
2024-04-23T00:22:41.947Z,5.22
2024-04-23T00:25:09.842Z,5.21
2024-04-23T00:27:40.354Z,5.20
2024-04-23T00:30:09.414Z,5.17
2024-04-23T00:32:40.135Z,5.16
2024-04-23T00:35:10.935Z,5.17
2024-04-23T00:37:41.522Z,5.17
2024-04-23T00:40:10.196Z,5.17
2024-04-23T00:42:40.746Z,5.25
2024-04-23T00:45:09.586Z,5.31
2024-04-23T00:47:40.271Z,5.35
2024-04-23T00:50:12.108Z,5.30
2024-04-23T00:52:43.050Z,5.26
2024-04-23T00:55:12.759Z,5.18
2024-04-23T00:57:43.526Z,5.19
2024-04-23T01:00:13.035Z,5.12
2024-04-23T01:02:43.933Z,5.02
2024-04-23T01:05:14.865Z,5.07
2024-04-23T01:07:45.547Z,5.09
2024-04-23T01:10:14.032Z,5.09
2024-04-23T01:12:44.593Z,5.07
2024-04-23T01:15:14.766Z,4.96
2024-04-23T01:17:47.627Z,4.96
2024-04-23T01:20:20.744Z,5.09
2024-04-23T01:23:01.619Z,5.14
2024-04-23T01:25:30.735Z,5.06
2024-04-23T01:28:04.237Z,5.24
2024-04-23T01:30:32.870Z,5.34
2024-04-23T01:33:06.575Z,5.33
2024-04-23T01:35:35.395Z,5.31
2024-04-23T01:38:06.980Z,5.27
2024-04-23T01:40:35.263Z,5.26
2024-04-23T01:43:09.274Z,5.09
2024-04-23T01:45:37.994Z,5.28
2024-04-23T01:48:09.383Z,5.34
2024-04-23T01:50:37.816Z,5.38
2024-04-23T01:53:08.682Z,5.42
2024-04-23T01:55:36.580Z,5.43
2024-04-23T01:58:10.110Z,5.36
2024-04-23T02:00:39.960Z,5.38
2024-04-23T02:03:11.200Z,5.42
2024-04-23T02:05:41.839Z,5.37
2024-04-23T02:08:12.695Z,5.27
2024-04-23T02:10:43.707Z,5.36
2024-04-23T02:13:17.391Z,5.37
2024-04-23T02:15:45.282Z,5.35
2024-04-23T02:18:15.915Z,5.35
2024-04-23T02:20:43.767Z,5.44
2024-04-23T02:23:14.205Z,5.42
2024-04-23T02:25:42.054Z,5.40
2024-04-23T02:28:12.566Z,5.37
2024-04-23T02:30:43.535Z,5.36
2024-04-23T02:33:14.163Z,5.37
2024-04-23T02:35:42.116Z,5.36
2024-04-23T02:38:12.554Z,5.40
2024-04-23T02:40:40.606Z,5.37
2024-04-23T02:43:11.034Z,5.37
2024-04-23T02:45:39.332Z,5.34
2024-04-23T02:48:12.745Z,5.29
2024-04-23T02:50:40.648Z,5.38
2024-04-23T02:53:11.137Z,5.31
2024-04-23T02:55:39.404Z,5.29
2024-04-23T02:58:10.532Z,5.27
2024-04-23T03:00:38.496Z,5.27
2024-04-23T03:03:12.058Z,5.28
2024-04-23T03:05:42.760Z,5.21
2024-04-23T03:08:11.098Z,5.21
2024-04-23T03:10:41.743Z,5.18
2024-04-23T03:13:10.923Z,5.18
2024-04-23T03:15:41.359Z,5.22
2024-04-23T03:18:12.086Z,5.25
2024-04-23T03:20:42.718Z,5.26
2024-04-23T03:23:10.508Z,5.14
2024-04-23T03:25:41.152Z,5.27
2024-04-23T03:28:09.002Z,5.27
2024-04-23T03:30:39.537Z,5.24
2024-04-23T03:33:07.722Z,5.25
2024-04-23T03:35:40.935Z,5.35
2024-04-23T03:38:11.552Z,5.34
2024-04-23T03:40:42.358Z,5.39
2024-04-23T03:43:13.091Z,5.33
2024-04-23T03:45:43.719Z,5.27
2024-04-23T03:48:14.956Z,5.14
2024-04-23T03:50:45.979Z,5.18
2024-04-23T03:53:16.576Z,5.15
2024-04-23T03:55:44.460Z,5.22
2024-04-23T03:58:15.098Z,5.25
2024-04-23T04:00:46.436Z,5.28
2024-04-23T04:03:25.077Z,5.29
2024-04-23T04:06:07.814Z,5.26
2024-04-23T04:08:39.889Z,5.24
2024-04-23T04:11:08.036Z,5.31
2024-04-23T04:13:41.029Z,5.26
2024-04-23T04:16:09.205Z,5.28
2024-04-23T04:18:40.870Z,5.34
2024-04-23T04:21:11.452Z,5.38
2024-04-23T04:23:41.883Z,5.41
2024-04-23T04:26:13.433Z,5.46
2024-04-23T04:28:44.035Z,5.47
2024-04-23T04:31:13.876Z,5.54
2024-04-23T04:33:44.030Z,5.55
2024-04-23T04:36:14.545Z,5.59
2024-04-23T04:38:45.117Z,5.63
2024-04-23T04:41:13.091Z,5.73
2024-04-23T04:43:43.656Z,5.79
2024-04-23T04:46:11.613Z,5.83
2024-04-23T04:48:42.169Z,5.83
2024-04-23T04:51:10.346Z,5.85
2024-04-23T04:53:43.628Z,5.84
2024-04-23T04:56:11.548Z,5.88
2024-04-23T04:58:42.693Z,5.97
2024-04-23T05:01:10.997Z,6.03
2024-04-23T05:03:41.525Z,6.03
2024-04-23T05:06:09.359Z,5.98
2024-04-23T05:08:42.497Z,6.02
2024-04-23T05:11:10.600Z,6.07
2024-04-23T05:13:41.065Z,6.10
2024-04-23T05:16:09.078Z,6.07
2024-04-23T05:18:39.580Z,6.12
2024-04-23T05:21:07.526Z,6.13
2024-04-23T05:23:38.285Z,6.14
2024-04-23T05:26:08.860Z,6.16
2024-04-23T05:28:39.516Z,6.19
2024-04-23T05:31:18.213Z,6.22
2024-04-23T05:33:49.608Z,6.30
2024-04-23T05:36:24.041Z,6.35
2024-04-23T05:38:54.704Z,6.39
2024-04-23T05:41:27.818Z,6.48
2024-04-23T05:44:00.794Z,6.57
2024-04-23T05:46:31.544Z,6.54
2024-04-23T05:49:23.940Z,6.55
2024-04-23T05:52:30.377Z,6.56
2024-04-23T05:55:34.362Z,6.59
2024-04-23T05:58:05.173Z,6.60
2024-04-23T06:00:36.981Z,6.65
2024-04-23T06:03:05.381Z,6.52
2024-04-23T06:05:36.078Z,6.67
2024-04-23T06:08:04.806Z,6.72
2024-04-23T06:10:35.367Z,6.78
2024-04-23T06:13:08.926Z,6.83
2024-04-23T06:15:36.828Z,6.52
2024-04-23T06:18:07.755Z,6.91
2024-04-23T06:20:35.658Z,6.95
2024-04-23T06:23:06.248Z,7.00
2024-04-23T06:25:34.276Z,7.03
2024-04-23T06:28:09.780Z,7.13
2024-04-23T06:30:37.772Z,7.21
2024-04-23T06:33:08.927Z,7.27
2024-04-23T06:35:37.180Z,7.40
2024-04-23T06:38:07.915Z,7.66
2024-04-23T06:40:36.115Z,7.93
2024-04-23T06:43:09.187Z,8.14
2024-04-23T06:45:37.075Z,8.08
2024-04-23T06:48:07.843Z,8.10
2024-04-23T06:50:35.654Z,8.31
2024-04-23T06:53:07.835Z,8.48
2024-04-23T06:55:36.180Z,8.36
2024-04-23T06:58:09.742Z,8.70
2024-04-23T07:00:37.844Z,8.98
2024-04-23T07:03:08.613Z,8.90
2024-04-23T07:05:39.190Z,8.85
2024-04-23T07:08:07.909Z,8.90
2024-04-23T07:10:38.812Z,9.06
2024-04-23T07:13:09.426Z,9.19
2024-04-23T07:15:39.942Z,9.19
2024-04-23T07:18:08.786Z,9.15
2024-04-23T07:20:40.483Z,9.25
2024-04-23T07:23:12.447Z,9.19
2024-04-23T07:25:43.111Z,9.07
2024-04-23T07:28:13.648Z,9.04
2024-04-23T07:30:44.361Z,9.13
2024-04-23T07:33:12.459Z,9.15
2024-04-23T07:35:44.787Z,9.28
2024-04-23T07:38:13.196Z,9.30
2024-04-23T07:40:45.821Z,9.55
2024-04-23T07:43:16.539Z,9.62
2024-04-23T07:45:47.410Z,9.75
2024-04-23T07:48:15.277Z,9.79
2024-04-23T07:50:46.085Z,9.85
2024-04-23T07:53:14.329Z,9.75
2024-04-23T07:55:44.868Z,9.88
2024-04-23T07:58:12.754Z,10.00
2024-04-23T08:00:46.550Z,9.67
2024-04-23T08:03:14.422Z,10.03
2024-04-23T08:05:46.350Z,9.68
2024-04-23T08:08:14.425Z,9.91
2024-04-23T08:10:45.684Z,9.88
2024-04-23T08:13:14.831Z,9.88
2024-04-23T08:15:48.082Z,9.90
2024-04-23T08:18:16.178Z,9.88
2024-04-23T08:20:46.673Z,10.05
2024-04-23T08:23:14.465Z,10.04
2024-04-23T08:25:47.526Z,10.01
2024-04-23T08:28:16.479Z,9.95
2024-04-23T08:30:50.646Z,9.96
2024-04-23T08:33:21.246Z,9.93
2024-04-23T08:35:50.210Z,10.02
2024-04-23T08:38:20.641Z,10.00
2024-04-23T08:40:48.624Z,10.01
2024-04-23T08:43:24.141Z,10.01
2024-04-23T08:45:57.002Z,10.04
2024-04-23T08:48:33.936Z,10.11
2024-04-23T08:51:04.477Z,10.17
2024-04-23T08:53:37.913Z,10.17
2024-04-23T08:56:13.658Z,10.15
2024-04-23T08:58:46.392Z,10.10
2024-04-23T09:01:28.948Z,10.08
2024-04-23T09:03:58.187Z,9.99
2024-04-23T09:06:30.152Z,10.02
2024-04-23T09:08:59.531Z,10.11
2024-04-23T09:11:30.586Z,10.04
2024-04-23T09:13:58.761Z,10.05
2024-04-23T09:16:32.387Z,10.08
2024-04-23T09:19:00.411Z,10.06
2024-04-23T09:21:31.427Z,10.07
2024-04-23T09:24:01.887Z,10.02
2024-04-23T09:26:33.291Z,10.07
2024-04-23T09:29:01.408Z,10.07
2024-04-23T09:31:39.865Z,10.13
2024-04-23T09:34:12.459Z,10.16
2024-04-23T09:36:43.261Z,10.22
2024-04-23T09:39:17.075Z,10.23
2024-04-23T09:41:59.230Z,10.27
2024-04-23T09:44:27.735Z,10.34
2024-04-23T09:47:00.914Z,10.41
2024-04-23T09:49:35.752Z,10.32
2024-04-23T09:52:06.445Z,10.46
2024-04-23T09:54:41.958Z,10.47
2024-04-23T09:57:12.553Z,10.47
2024-04-23T09:59:40.682Z,10.52
2024-04-23T10:02:20.562Z,10.59
2024-04-23T10:04:51.532Z,10.65
2024-04-23T10:07:25.261Z,10.75
2024-04-23T10:09:53.962Z,10.89
2024-04-23T10:12:27.914Z,11.01
2024-04-23T10:15:05.012Z,11.04
2024-04-23T10:17:46.169Z,11.38
2024-04-23T10:20:18.775Z,11.46
2024-04-23T10:22:49.719Z,11.66
2024-04-23T10:25:19.839Z,11.91
2024-04-23T10:27:51.586Z,12.17
2024-04-23T10:30:20.122Z,12.37
2024-04-23T10:32:54.289Z,12.26
2024-04-23T10:35:27.704Z,12.34
2024-04-23T10:37:56.161Z,12.28
2024-04-23T10:40:27.599Z,12.39
2024-04-23T10:42:57.694Z,12.60
2024-04-23T10:45:28.494Z,12.47
2024-04-23T10:48:08.262Z,12.90
2024-04-23T10:50:38.819Z,13.23
2024-04-23T10:53:09.648Z,13.34
2024-04-23T10:55:40.521Z,13.21
2024-04-23T10:58:09.355Z,13.11
2024-04-23T11:00:40.168Z,12.95
2024-04-23T11:03:19.933Z,12.80
2024-04-23T11:05:51.459Z,12.70
2024-04-23T11:08:24.213Z,12.65
2024-04-23T11:10:57.016Z,12.65
2024-04-23T11:13:29.389Z,12.63
2024-04-23T11:16:03.645Z,12.47
2024-04-23T11:18:43.676Z,12.78
2024-04-23T11:21:14.703Z,12.84
2024-04-23T11:23:44.096Z,12.89
2024-04-23T11:26:14.727Z,13.02
2024-04-23T11:28:44.246Z,13.29
2024-04-23T11:31:18.270Z,13.72
2024-04-23T11:33:51.426Z,13.88
2024-04-23T11:36:28.921Z,13.87
2024-04-23T11:39:02.677Z,13.86
2024-04-23T11:41:33.567Z,13.77
2024-04-23T11:44:05.446Z,13.81
2024-04-23T11:46:36.190Z,13.77
2024-04-23T11:49:06.805Z,13.97
2024-04-23T11:51:37.337Z,14.20
2024-04-23T11:54:07.005Z,14.28
2024-04-23T11:56:37.238Z,14.33
2024-04-23T11:59:05.145Z,14.34
2024-04-23T12:01:35.727Z,14.33
2024-04-23T12:04:10.681Z,14.44
2024-04-23T12:06:40.773Z,14.31
2024-04-23T12:09:12.039Z,14.26
2024-04-23T12:11:40.713Z,14.29
2024-04-23T12:14:13.470Z,14.46
2024-04-23T12:16:44.698Z,14.17
2024-04-23T12:19:18.936Z,14.11
2024-04-23T12:21:46.930Z,14.05
2024-04-23T12:24:21.190Z,14.08
2024-04-23T12:26:52.849Z,14.05
2024-04-23T12:29:31.468Z,14.01
2024-04-23T12:31:59.500Z,13.99
2024-04-23T12:34:32.997Z,13.93
2024-04-23T12:37:01.032Z,13.86
2024-04-23T12:39:31.584Z,13.80
2024-04-23T12:42:09.345Z,13.79
2024-04-23T12:44:39.928Z,13.70
2024-04-23T12:47:11.362Z,13.55
2024-04-23T12:49:44.990Z,13.43
2024-04-23T12:52:15.574Z,13.58
2024-04-23T12:54:43.632Z,13.55
2024-04-23T12:57:14.369Z,13.51
2024-04-23T12:59:42.264Z,13.38
2024-04-23T13:02:14.123Z,13.33
2024-04-23T13:04:44.859Z,13.34
2024-04-23T13:07:15.359Z,13.33
2024-04-23T13:09:43.442Z,13.33
2024-04-23T13:12:13.950Z,13.30
2024-04-23T13:14:41.971Z,13.21
2024-04-23T13:17:12.468Z,13.14
2024-04-23T13:19:45.296Z,13.05
2024-04-23T13:22:23.671Z,13.06
2024-04-23T13:24:51.812Z,13.01
2024-04-23T13:27:22.295Z,13.05
2024-04-23T13:29:51.830Z,13.05
2024-04-23T13:32:22.544Z,13.09
2024-04-23T13:34:50.496Z,13.17
2024-04-23T13:37:23.956Z,13.25
2024-04-23T13:39:51.813Z,13.29
2024-04-23T13:42:22.381Z,13.31
2024-04-23T13:44:50.227Z,13.40
2024-04-23T13:47:20.901Z,13.48
2024-04-23T13:49:48.769Z,13.48
2024-04-23T13:52:19.303Z,13.55
2024-04-23T13:54:49.925Z,13.56
2024-04-23T13:57:20.458Z,13.70
2024-04-23T13:59:48.528Z,13.65
2024-04-23T14:02:19.266Z,13.64
2024-04-23T14:04:47.604Z,13.49
2024-04-23T14:07:21.185Z,13.50
2024-04-23T14:09:51.958Z,13.54
2024-04-23T14:12:24.871Z,13.57
2024-04-23T14:14:52.813Z,13.60
2024-04-23T14:17:23.321Z,13.72
2024-04-23T14:19:51.204Z,13.75
2024-04-23T14:22:21.722Z,13.77
2024-04-23T14:24:54.177Z,13.82
2024-04-23T14:27:24.847Z,13.86
2024-04-23T14:29:52.805Z,13.85
2024-04-23T14:32:23.996Z,13.91
2024-04-23T14:34:54.320Z,14.01
2024-04-23T14:37:25.967Z,14.14
2024-04-23T14:39:56.568Z,14.29
2024-04-23T14:42:27.135Z,14.35
2024-04-23T14:44:57.878Z,14.36
2024-04-23T14:47:30.174Z,14.33
2024-04-23T14:49:58.350Z,14.33
2024-04-23T14:52:28.787Z,14.31
2024-04-23T14:54:59.488Z,14.30
2024-04-23T14:57:30.075Z,14.10
2024-04-23T14:59:57.968Z,14.18
2024-04-23T15:02:28.451Z,14.02
2024-04-23T15:04:56.397Z,13.91
2024-04-23T15:07:32.362Z,14.16
2024-04-23T15:10:04.994Z,14.22
2024-04-23T15:12:35.647Z,14.24
2024-04-23T15:15:06.588Z,14.16
2024-04-23T15:17:36.510Z,14.09
2024-04-23T15:20:07.508Z,14.01
2024-04-23T15:22:35.410Z,14.01
2024-04-23T15:25:09.572Z,13.96
2024-04-23T15:27:37.424Z,13.86
2024-04-23T15:30:08.628Z,13.80
2024-04-23T15:32:39.542Z,13.86
2024-04-23T15:35:07.822Z,13.84
2024-04-23T15:37:38.499Z,13.67
2024-04-23T15:40:09.789Z,13.50
2024-04-23T15:42:40.907Z,13.62
2024-04-23T15:45:09.167Z,13.50
2024-04-23T15:47:39.953Z,13.44
2024-04-23T15:50:08.396Z,13.39
2024-04-23T15:52:39.205Z,13.22
2024-04-23T15:55:10.344Z,13.24
2024-04-23T15:57:41.333Z,13.16
2024-04-23T16:00:10.357Z,13.05
2024-04-23T16:02:40.965Z,13.00
2024-04-23T16:05:08.948Z,12.96
2024-04-23T16:07:39.436Z,12.96
2024-04-23T16:10:10.186Z,12.92
2024-04-23T16:12:40.696Z,12.92
2024-04-23T16:15:12.004Z,12.93
2024-04-23T16:17:40.725Z,12.91
2024-04-23T16:20:11.833Z,12.87
2024-04-23T16:22:39.782Z,12.88
2024-04-23T16:25:13.367Z,12.79
2024-04-23T16:27:41.244Z,12.76
2024-04-23T16:30:12.915Z,12.80
2024-04-23T16:32:40.896Z,12.76
2024-04-23T16:35:13.254Z,12.66
2024-04-23T16:37:41.317Z,12.49
2024-04-23T16:40:14.977Z,12.70
2024-04-23T16:42:44.663Z,12.65
2024-04-23T16:45:14.793Z,12.61
2024-04-23T16:47:42.729Z,12.50
2024-04-23T16:50:13.525Z,12.46
2024-04-23T16:52:41.602Z,12.39
2024-04-23T16:55:14.762Z,12.35
2024-04-23T16:57:43.439Z,12.31
2024-04-23T17:00:15.146Z,12.24
2024-04-23T17:02:43.158Z,12.29
2024-04-23T17:05:13.686Z,12.25
2024-04-23T17:07:41.565Z,12.19
2024-04-23T17:10:14.832Z,12.12
2024-04-23T17:12:42.795Z,11.97
2024-04-23T17:15:13.227Z,11.92
2024-04-23T17:17:41.313Z,11.87
2024-04-23T17:20:13.019Z,11.73
2024-04-23T17:22:42.533Z,11.75
2024-04-23T17:25:16.432Z,11.65
2024-04-23T17:27:44.977Z,11.75
2024-04-23T17:30:15.683Z,11.64
2024-04-23T17:32:43.558Z,11.74
2024-04-23T17:35:14.113Z,11.71
2024-04-23T17:37:42.187Z,11.67
2024-04-23T17:40:16.046Z,11.61
2024-04-23T17:42:44.646Z,11.57
2024-04-23T17:45:15.069Z,11.49
2024-04-23T17:47:43.205Z,11.46
2024-04-23T17:50:13.828Z,11.44
2024-04-23T17:52:44.436Z,11.38
2024-04-23T17:55:15.437Z,11.38
2024-04-23T17:57:46.020Z,11.39
2024-04-23T18:00:14.185Z,11.38
2024-04-23T18:02:46.113Z,11.24
2024-04-23T18:05:14.048Z,11.36
2024-04-23T18:07:44.587Z,11.32
2024-04-23T18:10:15.281Z,11.31
2024-04-23T18:12:46.523Z,11.33
2024-04-23T18:15:14.492Z,11.32
2024-04-23T18:17:45.314Z,11.10
2024-04-23T18:20:13.233Z,11.20
2024-04-23T18:22:43.702Z,11.21
2024-04-23T18:25:16.095Z,11.17
2024-04-23T18:27:46.629Z,11.13
2024-04-23T18:30:14.511Z,11.11
2024-04-23T18:32:45.168Z,11.02
2024-04-23T18:35:13.247Z,11.08
2024-04-23T18:37:44.827Z,11.03
2024-04-23T18:40:15.650Z,11.05
2024-04-23T18:42:47.220Z,10.91
2024-04-23T18:45:15.962Z,10.98
2024-04-23T18:47:48.295Z,10.98
2024-04-23T18:50:16.798Z,11.00
2024-04-23T18:52:47.475Z,10.96
2024-04-23T18:55:18.238Z,10.90
2024-04-23T18:57:48.752Z,10.89
2024-04-23T19:00:16.791Z,10.82
2024-04-23T19:02:47.383Z,10.90
2024-04-23T19:05:15.446Z,10.94
2024-04-23T19:07:46.730Z,10.93
2024-04-23T19:10:16.478Z,10.94
2024-04-23T19:12:52.129Z,10.95
2024-04-23T19:15:20.022Z,10.94
2024-04-23T19:17:51.265Z,10.93
2024-04-23T19:20:19.640Z,10.96
2024-04-23T19:22:50.248Z,10.95
2024-04-23T19:25:18.407Z,10.94
2024-04-23T19:27:54.074Z,10.90
2024-04-23T19:30:21.935Z,10.93
2024-04-23T19:32:52.425Z,10.88
2024-04-23T19:35:23.096Z,10.90
2024-04-23T19:37:51.538Z,10.90
2024-04-23T19:40:22.166Z,10.89
2024-04-23T19:42:54.904Z,10.89
2024-04-23T19:45:25.920Z,10.90
2024-04-23T19:47:54.497Z,10.91
2024-04-23T19:50:25.053Z,10.94
2024-04-23T19:52:53.000Z,10.95
2024-04-23T19:55:23.487Z,10.81
2024-04-23T19:58:05.505Z,10.91
2024-04-23T20:00:36.196Z,10.93
2024-04-23T20:03:07.032Z,10.94
2024-04-23T20:05:37.593Z,10.95
2024-04-23T20:08:08.736Z,10.97
2024-04-23T20:10:39.287Z,10.96
2024-04-23T20:13:12.564Z,10.90
2024-04-23T20:15:43.086Z,10.90
2024-04-23T20:18:13.629Z,10.91
2024-04-23T20:20:44.396Z,10.77
2024-04-23T20:23:15.077Z,10.82
2024-04-23T20:25:45.946Z,10.88
2024-04-23T20:28:19.339Z,10.91
2024-04-23T20:30:49.856Z,10.85
2024-04-23T20:33:20.543Z,10.88
2024-04-23T20:35:51.354Z,10.85
2024-04-23T20:38:21.844Z,10.81
2024-04-23T20:40:52.476Z,10.84
2024-04-23T20:43:25.765Z,10.78
2024-04-23T20:45:56.322Z,10.82
2024-04-23T20:48:27.313Z,10.84
2024-04-23T20:50:58.658Z,10.84
2024-04-23T20:53:29.267Z,10.84
2024-04-23T20:56:00.212Z,10.82
2024-04-23T20:58:33.451Z,10.80
2024-04-23T21:01:09.738Z,10.81
2024-04-23T21:03:41.362Z,10.78
2024-04-23T21:06:13.022Z,10.80
2024-04-23T21:08:44.103Z,10.77
2024-04-23T21:11:13.334Z,10.82
2024-04-23T21:13:48.362Z,10.80
2024-04-23T21:16:19.369Z,10.56
2024-04-23T21:18:50.404Z,10.76
2024-04-23T21:21:20.894Z,10.75
2024-04-23T21:23:51.605Z,10.72
2024-04-23T21:26:22.675Z,10.70
2024-04-23T21:28:56.145Z,10.54
2024-04-23T21:31:26.768Z,10.64
2024-04-23T21:33:57.294Z,10.65
2024-04-23T21:36:30.331Z,10.66
2024-04-23T21:39:01.243Z,10.65
2024-04-23T21:41:32.097Z,10.59
2024-04-23T21:44:05.449Z,10.56
2024-04-23T21:46:36.035Z,10.50
2024-04-23T21:49:06.682Z,10.42
2024-04-23T21:51:35.871Z,10.46
2024-04-23T21:54:07.313Z,10.46
2024-04-23T21:56:41.214Z,10.45
2024-04-23T21:59:14.590Z,10.46
2024-04-23T22:01:45.322Z,10.44
2024-04-23T22:04:16.055Z,10.43
2024-04-23T22:06:46.664Z,10.37
2024-04-23T22:09:17.385Z,10.40
2024-04-23T22:11:48.026Z,10.39
2024-04-23T22:14:21.417Z,10.34
2024-04-23T22:16:51.995Z,10.25
2024-04-23T22:19:22.503Z,10.16
2024-04-23T22:21:53.109Z,9.98
2024-04-23T22:24:23.665Z,10.08
2024-04-23T22:26:54.371Z,10.03
2024-04-23T22:29:28.148Z,9.92
2024-04-23T22:31:58.839Z,9.96
2024-04-23T22:34:29.493Z,9.89
2024-04-23T22:37:00.129Z,9.90
2024-04-23T22:39:30.809Z,9.90
2024-04-23T22:42:03.242Z,9.86
2024-04-23T22:44:36.545Z,9.84
2024-04-23T22:47:10.000Z,9.84
2024-04-23T22:49:40.698Z,9.83
2024-04-23T22:52:11.231Z,9.83
2024-04-23T22:54:42.268Z,9.83
2024-04-23T22:57:13.268Z,9.81
2024-04-23T22:59:46.634Z,9.78
2024-04-23T23:02:17.673Z,9.80
2024-04-23T23:04:48.368Z,9.66
2024-04-23T23:07:19.034Z,9.74
2024-04-23T23:09:49.688Z,9.65
2024-04-23T23:12:21.506Z,9.70
2024-04-23T23:14:54.776Z,9.72
2024-04-23T23:17:25.472Z,9.69
2024-04-23T23:19:56.046Z,9.68
2024-04-23T23:22:26.587Z,9.68
2024-04-23T23:24:57.324Z,9.68
2024-04-23T23:27:28.054Z,9.66
2024-04-23T23:30:01.361Z,9.65
2024-04-23T23:32:32.149Z,9.66
2024-04-23T23:35:03.351Z,9.56
2024-04-23T23:37:33.847Z,9.55
2024-04-23T23:40:05.694Z,9.53
2024-04-23T23:42:36.500Z,9.61
2024-04-23T23:45:10.789Z,9.60
2024-04-23T23:47:42.178Z,9.53
2024-04-23T23:50:12.943Z,9.51
2024-04-23T23:52:43.688Z,9.48
2024-04-23T23:55:14.288Z,9.43
2024-04-23T23:57:44.887Z,9.50
